sensor_id;sensor_type;location;lat;lon;timestamp;P1;durP1;ratioP1;P2;durP2;ratioP2
65096;SDS011;51686;46.758;4.356;2022-08-19T00:00:26;10.18;;;7.00;;
65096;SDS011;51686;46.758;4.356;2022-08-19T00:03:16;10.93;;;7.20;;
65096;SDS011;51686;46.758;4.356;2022-08-19T00:06:03;10.48;;;7.70;;
65096;SDS011;51686;46.758;4.356;2022-08-19T00:08:50;10.82;;;7.65;;
65096;SDS011;51686;46.758;4.356;2022-08-19T00:11:37;10.65;;;7.32;;
65096;SDS011;51686;46.758;4.356;2022-08-19T00:14:28;10.40;;;7.10;;
65096;SDS011;51686;46.758;4.356;2022-08-19T00:17:17;10.35;;;7.18;;
65096;SDS011;51686;46.758;4.356;2022-08-19T00:20:05;10.32;;;7.00;;
65096;SDS011;51686;46.758;4.356;2022-08-19T00:22:53;10.88;;;7.57;;
65096;SDS011;51686;46.758;4.356;2022-08-19T00:25:41;10.68;;;7.50;;
65096;SDS011;51686;46.758;4.356;2022-08-19T00:28:34;11.40;;;7.78;;
65096;SDS011;51686;46.758;4.356;2022-08-19T00:31:22;11.00;;;7.82;;
65096;SDS011;51686;46.758;4.356;2022-08-19T00:34:14;10.85;;;7.30;;
65096;SDS011;51686;46.758;4.356;2022-08-19T00:37:01;11.10;;;7.55;;
65096;SDS011;51686;46.758;4.356;2022-08-19T00:40:04;11.40;;;7.82;;
65096;SDS011;51686;46.758;4.356;2022-08-19T00:42:53;10.95;;;7.68;;
65096;SDS011;51686;46.758;4.356;2022-08-19T00:45:40;11.07;;;7.35;;
65096;SDS011;51686;46.758;4.356;2022-08-19T00:48:30;10.80;;;7.50;;
65096;SDS011;51686;46.758;4.356;2022-08-19T00:51:18;9.98;;;7.07;;
65096;SDS011;51686;46.758;4.356;2022-08-19T00:54:08;11.23;;;7.55;;
65096;SDS011;51686;46.758;4.356;2022-08-19T00:56:55;10.05;;;6.93;;
65096;SDS011;51686;46.758;4.356;2022-08-19T00:59:43;10.38;;;7.30;;
65096;SDS011;51686;46.758;4.356;2022-08-19T01:02:47;12.00;;;7.97;;
65096;SDS011;51686;46.758;4.356;2022-08-19T01:05:35;10.68;;;7.93;;
65096;SDS011;51686;46.758;4.356;2022-08-19T01:08:23;11.00;;;7.97;;
65096;SDS011;51686;46.758;4.356;2022-08-19T01:11:09;10.73;;;7.32;;
65096;SDS011;51686;46.758;4.356;2022-08-19T01:13:57;10.32;;;7.40;;
65096;SDS011;51686;46.758;4.356;2022-08-19T01:16:47;11.07;;;7.25;;
65096;SDS011;51686;46.758;4.356;2022-08-19T01:19:35;11.27;;;7.68;;
65096;SDS011;51686;46.758;4.356;2022-08-19T01:22:52;10.98;;;7.25;;
65096;SDS011;51686;46.758;4.356;2022-08-19T01:25:49;11.80;;;7.50;;
65096;SDS011;51686;46.758;4.356;2022-08-19T01:28:39;10.48;;;7.43;;
65096;SDS011;51686;46.758;4.356;2022-08-19T01:31:28;10.95;;;7.60;;
65096;SDS011;51686;46.758;4.356;2022-08-19T01:34:19;10.30;;;7.20;;
65096;SDS011;51686;46.758;4.356;2022-08-19T01:37:07;11.40;;;7.32;;
65096;SDS011;51686;46.758;4.356;2022-08-19T01:40:10;10.82;;;7.30;;
65096;SDS011;51686;46.758;4.356;2022-08-19T01:42:58;11.13;;;8.10;;
65096;SDS011;51686;46.758;4.356;2022-08-19T01:45:46;10.93;;;7.90;;
65096;SDS011;51686;46.758;4.356;2022-08-19T01:48:37;12.23;;;7.63;;
65096;SDS011;51686;46.758;4.356;2022-08-19T01:51:27;9.98;;;7.22;;
65096;SDS011;51686;46.758;4.356;2022-08-19T01:54:24;10.75;;;7.68;;
65096;SDS011;51686;46.758;4.356;2022-08-19T01:57:13;10.73;;;7.15;;
65096;SDS011;51686;46.758;4.356;2022-08-19T02:00:04;10.85;;;7.55;;
65096;SDS011;51686;46.758;4.356;2022-08-19T02:02:53;11.32;;;7.85;;
65096;SDS011;51686;46.758;4.356;2022-08-19T02:05:41;10.93;;;7.53;;
65096;SDS011;51686;46.758;4.356;2022-08-19T02:08:29;10.20;;;7.30;;
65096;SDS011;51686;46.758;4.356;2022-08-19T02:11:20;11.50;;;8.13;;
65096;SDS011;51686;46.758;4.356;2022-08-19T02:14:09;10.88;;;7.50;;
65096;SDS011;51686;46.758;4.356;2022-08-19T02:16:56;10.88;;;7.90;;
65096;SDS011;51686;46.758;4.356;2022-08-19T02:19:43;10.57;;;7.53;;
65096;SDS011;51686;46.758;4.356;2022-08-19T02:22:30;10.75;;;7.35;;
65096;SDS011;51686;46.758;4.356;2022-08-19T02:25:17;10.30;;;7.07;;
65096;SDS011;51686;46.758;4.356;2022-08-19T02:28:04;11.00;;;7.38;;
65096;SDS011;51686;46.758;4.356;2022-08-19T02:30:54;11.85;;;8.25;;
65096;SDS011;51686;46.758;4.356;2022-08-19T02:33:41;10.68;;;7.80;;
65096;SDS011;51686;46.758;4.356;2022-08-19T02:36:28;10.85;;;7.22;;
65096;SDS011;51686;46.758;4.356;2022-08-19T02:39:15;11.10;;;7.00;;
65096;SDS011;51686;46.758;4.356;2022-08-19T02:42:02;10.73;;;7.20;;
65096;SDS011;51686;46.758;4.356;2022-08-19T02:44:49;10.88;;;7.53;;
65096;SDS011;51686;46.758;4.356;2022-08-19T02:47:38;10.63;;;7.45;;
65096;SDS011;51686;46.758;4.356;2022-08-19T02:50:25;10.98;;;6.53;;
65096;SDS011;51686;46.758;4.356;2022-08-19T02:53:12;11.05;;;7.50;;
65096;SDS011;51686;46.758;4.356;2022-08-19T02:56:05;10.70;;;7.47;;
65096;SDS011;51686;46.758;4.356;2022-08-19T02:58:54;10.75;;;7.40;;
65096;SDS011;51686;46.758;4.356;2022-08-19T03:01:41;10.65;;;7.28;;
65096;SDS011;51686;46.758;4.356;2022-08-19T03:04:29;10.97;;;7.17;;
65096;SDS011;51686;46.758;4.356;2022-08-19T03:07:16;11.18;;;7.78;;
65096;SDS011;51686;46.758;4.356;2022-08-19T03:10:03;11.00;;;7.30;;
65096;SDS011;51686;46.758;4.356;2022-08-19T03:12:50;11.65;;;7.57;;
65096;SDS011;51686;46.758;4.356;2022-08-19T03:15:44;11.15;;;7.65;;
65096;SDS011;51686;46.758;4.356;2022-08-19T03:18:34;10.52;;;7.20;;
65096;SDS011;51686;46.758;4.356;2022-08-19T03:21:22;10.85;;;7.40;;
65096;SDS011;51686;46.758;4.356;2022-08-19T03:24:11;10.52;;;7.32;;
65096;SDS011;51686;46.758;4.356;2022-08-19T03:27:00;11.10;;;7.90;;
65096;SDS011;51686;46.758;4.356;2022-08-19T03:29:52;9.93;;;6.90;;
65096;SDS011;51686;46.758;4.356;2022-08-19T03:32:46;11.25;;;7.32;;
65096;SDS011;51686;46.758;4.356;2022-08-19T03:35:38;11.00;;;7.80;;
65096;SDS011;51686;46.758;4.356;2022-08-19T03:38:25;11.30;;;7.38;;
65096;SDS011;51686;46.758;4.356;2022-08-19T03:41:13;10.02;;;6.88;;
65096;SDS011;51686;46.758;4.356;2022-08-19T03:44:05;10.85;;;7.40;;
65096;SDS011;51686;46.758;4.356;2022-08-19T03:46:58;10.50;;;7.47;;
65096;SDS011;51686;46.758;4.356;2022-08-19T03:49:46;11.07;;;7.57;;
65096;SDS011;51686;46.758;4.356;2022-08-19T03:52:34;10.90;;;7.30;;
65096;SDS011;51686;46.758;4.356;2022-08-19T03:55:22;10.32;;;6.50;;
65096;SDS011;51686;46.758;4.356;2022-08-19T03:58:09;11.20;;;7.68;;
65096;SDS011;51686;46.758;4.356;2022-08-19T04:00:59;10.88;;;7.43;;
65096;SDS011;51686;46.758;4.356;2022-08-19T04:03:46;11.93;;;7.47;;
65096;SDS011;51686;46.758;4.356;2022-08-19T04:06:34;10.73;;;7.43;;
65096;SDS011;51686;46.758;4.356;2022-08-19T04:09:25;11.07;;;7.70;;
65096;SDS011;51686;46.758;4.356;2022-08-19T04:12:12;10.60;;;7.28;;
65096;SDS011;51686;46.758;4.356;2022-08-19T04:14:59;10.43;;;7.28;;
65096;SDS011;51686;46.758;4.356;2022-08-19T04:17:46;10.57;;;7.03;;
65096;SDS011;51686;46.758;4.356;2022-08-19T04:20:38;10.30;;;7.13;;
65096;SDS011;51686;46.758;4.356;2022-08-19T04:23:26;10.90;;;7.57;;
65096;SDS011;51686;46.758;4.356;2022-08-19T04:26:16;10.38;;;7.28;;
65096;SDS011;51686;46.758;4.356;2022-08-19T04:29:07;10.65;;;7.20;;
65096;SDS011;51686;46.758;4.356;2022-08-19T04:31:58;10.95;;;7.18;;
65096;SDS011;51686;46.758;4.356;2022-08-19T04:34:55;10.60;;;7.18;;
65096;SDS011;51686;46.758;4.356;2022-08-19T04:37:48;10.15;;;6.95;;
65096;SDS011;51686;46.758;4.356;2022-08-19T04:40:39;11.07;;;7.28;;
65096;SDS011;51686;46.758;4.356;2022-08-19T04:43:49;10.80;;;7.35;;
65096;SDS011;51686;46.758;4.356;2022-08-19T04:46:37;11.10;;;7.32;;
65096;SDS011;51686;46.758;4.356;2022-08-19T04:49:36;10.70;;;7.35;;
65096;SDS011;51686;46.758;4.356;2022-08-19T04:52:23;10.73;;;7.63;;
65096;SDS011;51686;46.758;4.356;2022-08-19T04:55:11;10.55;;;7.35;;
65096;SDS011;51686;46.758;4.356;2022-08-19T04:58:02;11.02;;;7.13;;
65096;SDS011;51686;46.758;4.356;2022-08-19T05:00:49;10.30;;;6.70;;
65096;SDS011;51686;46.758;4.356;2022-08-19T05:03:36;10.43;;;7.00;;
65096;SDS011;51686;46.758;4.356;2022-08-19T05:06:24;10.02;;;6.68;;
65096;SDS011;51686;46.758;4.356;2022-08-19T05:09:11;10.05;;;6.90;;
65096;SDS011;51686;46.758;4.356;2022-08-19T05:11:58;10.80;;;7.10;;
65096;SDS011;51686;46.758;4.356;2022-08-19T05:14:46;10.50;;;7.38;;
65096;SDS011;51686;46.758;4.356;2022-08-19T05:17:34;10.23;;;6.85;;
65096;SDS011;51686;46.758;4.356;2022-08-19T05:20:24;10.80;;;7.07;;
65096;SDS011;51686;46.758;4.356;2022-08-19T05:23:49;10.50;;;7.22;;
65096;SDS011;51686;46.758;4.356;2022-08-19T05:26:37;11.15;;;7.13;;
65096;SDS011;51686;46.758;4.356;2022-08-19T05:29:25;10.77;;;6.97;;
65096;SDS011;51686;46.758;4.356;2022-08-19T05:32:21;10.18;;;6.90;;
65096;SDS011;51686;46.758;4.356;2022-08-19T05:35:09;10.38;;;6.97;;
65096;SDS011;51686;46.758;4.356;2022-08-19T05:37:57;10.07;;;7.10;;
65096;SDS011;51686;46.758;4.356;2022-08-19T05:40:44;10.52;;;7.53;;
65096;SDS011;51686;46.758;4.356;2022-08-19T05:43:33;11.85;;;8.18;;
65096;SDS011;51686;46.758;4.356;2022-08-19T05:46:20;11.70;;;7.75;;
65096;SDS011;51686;46.758;4.356;2022-08-19T05:49:14;11.50;;;8.10;;
65096;SDS011;51686;46.758;4.356;2022-08-19T05:52:03;11.68;;;8.07;;
65096;SDS011;51686;46.758;4.356;2022-08-19T05:54:51;11.75;;;8.18;;
65096;SDS011;51686;46.758;4.356;2022-08-19T05:57:38;11.07;;;7.43;;
65096;SDS011;51686;46.758;4.356;2022-08-19T06:00:25;11.85;;;7.68;;
65096;SDS011;51686;46.758;4.356;2022-08-19T06:03:12;11.52;;;7.88;;
65096;SDS011;51686;46.758;4.356;2022-08-19T06:05:59;11.55;;;8.15;;
65096;SDS011;51686;46.758;4.356;2022-08-19T06:08:46;10.93;;;7.18;;
65096;SDS011;51686;46.758;4.356;2022-08-19T06:11:38;10.88;;;7.40;;
65096;SDS011;51686;46.758;4.356;2022-08-19T06:14:28;11.32;;;7.55;;
65096;SDS011;51686;46.758;4.356;2022-08-19T06:17:18;11.20;;;7.43;;
65096;SDS011;51686;46.758;4.356;2022-08-19T06:20:07;10.80;;;7.38;;
65096;SDS011;51686;46.758;4.356;2022-08-19T06:22:58;10.75;;;7.03;;
65096;SDS011;51686;46.758;4.356;2022-08-19T06:25:45;11.57;;;7.25;;
65096;SDS011;51686;46.758;4.356;2022-08-19T06:28:34;11.93;;;7.88;;
65096;SDS011;51686;46.758;4.356;2022-08-19T06:31:22;10.18;;;6.78;;
65096;SDS011;51686;46.758;4.356;2022-08-19T06:34:11;10.35;;;6.70;;
65096;SDS011;51686;46.758;4.356;2022-08-19T06:36:59;10.75;;;7.32;;
65096;SDS011;51686;46.758;4.356;2022-08-19T06:40:32;11.27;;;7.80;;
65096;SDS011;51686;46.758;4.356;2022-08-19T06:44:07;9.85;;;6.30;;
65096;SDS011;51686;46.758;4.356;2022-08-19T06:46:58;11.10;;;7.25;;
65096;SDS011;51686;46.758;4.356;2022-08-19T06:52:16;10.43;;;7.00;;
65096;SDS011;51686;46.758;4.356;2022-08-19T06:55:13;10.02;;;6.78;;
65096;SDS011;51686;46.758;4.356;2022-08-19T07:09:49;10.32;;;6.57;;
65096;SDS011;51686;46.758;4.356;2022-08-19T07:30:39;10.18;;;6.47;;
65096;SDS011;51686;46.758;4.356;2022-08-19T07:33:29;10.68;;;7.00;;
65096;SDS011;51686;46.758;4.356;2022-08-19T07:36:20;11.18;;;6.88;;
65096;SDS011;51686;46.758;4.356;2022-08-19T07:39:13;10.57;;;6.60;;
65096;SDS011;51686;46.758;4.356;2022-08-19T07:42:04;10.25;;;6.55;;
65096;SDS011;51686;46.758;4.356;2022-08-19T07:44:53;10.52;;;6.97;;
65096;SDS011;51686;46.758;4.356;2022-08-19T07:47:40;10.10;;;6.72;;
65096;SDS011;51686;46.758;4.356;2022-08-19T07:50:44;10.55;;;6.95;;
65096;SDS011;51686;46.758;4.356;2022-08-19T07:53:31;10.50;;;6.68;;
65096;SDS011;51686;46.758;4.356;2022-08-19T07:56:25;10.95;;;6.82;;
65096;SDS011;51686;46.758;4.356;2022-08-19T07:59:12;11.10;;;6.97;;
65096;SDS011;51686;46.758;4.356;2022-08-19T08:01:59;10.05;;;6.60;;
65096;SDS011;51686;46.758;4.356;2022-08-19T08:04:47;11.07;;;6.30;;
65096;SDS011;51686;46.758;4.356;2022-08-19T08:07:52;10.30;;;6.93;;
65096;SDS011;51686;46.758;4.356;2022-08-19T08:10:59;10.68;;;6.35;;
65096;SDS011;51686;46.758;4.356;2022-08-19T08:13:47;10.50;;;6.68;;
65096;SDS011;51686;46.758;4.356;2022-08-19T08:16:50;9.52;;;6.30;;
65096;SDS011;51686;46.758;4.356;2022-08-19T08:19:39;9.68;;;6.38;;
65096;SDS011;51686;46.758;4.356;2022-08-19T08:22:27;10.32;;;6.35;;
65096;SDS011;51686;46.758;4.356;2022-08-19T08:25:33;10.35;;;6.65;;
65096;SDS011;51686;46.758;4.356;2022-08-19T08:31:08;9.48;;;5.88;;
65096;SDS011;51686;46.758;4.356;2022-08-19T08:33:55;9.25;;;5.70;;
65096;SDS011;51686;46.758;4.356;2022-08-19T08:36:44;9.70;;;6.25;;
65096;SDS011;51686;46.758;4.356;2022-08-19T08:39:34;10.48;;;6.75;;
65096;SDS011;51686;46.758;4.356;2022-08-19T08:42:29;10.13;;;6.88;;
65096;SDS011;51686;46.758;4.356;2022-08-19T08:45:19;10.25;;;6.47;;
65096;SDS011;51686;46.758;4.356;2022-08-19T08:48:15;9.63;;;6.30;;
65096;SDS011;51686;46.758;4.356;2022-08-19T08:51:25;10.43;;;6.93;;
65096;SDS011;51686;46.758;4.356;2022-08-19T08:54:20;10.50;;;6.95;;
65096;SDS011;51686;46.758;4.356;2022-08-19T08:57:12;10.65;;;7.00;;
65096;SDS011;51686;46.758;4.356;2022-08-19T09:00:06;10.40;;;6.95;;
65096;SDS011;51686;46.758;4.356;2022-08-19T09:03:02;10.85;;;7.10;;
65096;SDS011;51686;46.758;4.356;2022-08-19T09:09:02;10.40;;;7.10;;
65096;SDS011;51686;46.758;4.356;2022-08-19T09:23:14;11.27;;;7.35;;
65096;SDS011;51686;46.758;4.356;2022-08-19T09:26:06;11.30;;;7.60;;
65096;SDS011;51686;46.758;4.356;2022-08-19T09:28:55;11.30;;;7.45;;
65096;SDS011;51686;46.758;4.356;2022-08-19T09:31:44;11.25;;;7.65;;
65096;SDS011;51686;46.758;4.356;2022-08-19T09:34:31;11.65;;;7.50;;
65096;SDS011;51686;46.758;4.356;2022-08-19T09:37:26;10.40;;;6.80;;
65096;SDS011;51686;46.758;4.356;2022-08-19T09:40:14;10.35;;;7.00;;
65096;SDS011;51686;46.758;4.356;2022-08-19T09:43:05;10.82;;;6.65;;
65096;SDS011;51686;46.758;4.356;2022-08-19T09:45:59;11.43;;;6.72;;
65096;SDS011;51686;46.758;4.356;2022-08-19T09:48:47;10.68;;;6.90;;
65096;SDS011;51686;46.758;4.356;2022-08-19T09:51:35;10.20;;;6.95;;
65096;SDS011;51686;46.758;4.356;2022-08-19T09:54:23;11.75;;;6.55;;
65096;SDS011;51686;46.758;4.356;2022-08-19T09:57:10;9.98;;;6.75;;
65096;SDS011;51686;46.758;4.356;2022-08-19T09:59:57;10.65;;;6.95;;
65096;SDS011;51686;46.758;4.356;2022-08-19T10:02:44;10.48;;;6.72;;
65096;SDS011;51686;46.758;4.356;2022-08-19T10:05:31;9.65;;;6.57;;
65096;SDS011;51686;46.758;4.356;2022-08-19T10:08:41;11.27;;;7.10;;
65096;SDS011;51686;46.758;4.356;2022-08-19T10:11:36;10.68;;;7.10;;
65096;SDS011;51686;46.758;4.356;2022-08-19T10:17:21;10.07;;;6.78;;
65096;SDS011;51686;46.758;4.356;2022-08-19T10:20:17;9.88;;;6.55;;
65096;SDS011;51686;46.758;4.356;2022-08-19T10:23:03;10.15;;;6.60;;
65096;SDS011;51686;46.758;4.356;2022-08-19T10:25:53;10.65;;;7.20;;
65096;SDS011;51686;46.758;4.356;2022-08-19T10:28:40;10.02;;;6.53;;
65096;SDS011;51686;46.758;4.356;2022-08-19T10:31:32;10.20;;;6.40;;
65096;SDS011;51686;46.758;4.356;2022-08-19T10:34:40;9.65;;;6.47;;
65096;SDS011;51686;46.758;4.356;2022-08-19T10:37:35;9.82;;;6.72;;
65096;SDS011;51686;46.758;4.356;2022-08-19T10:40:35;9.98;;;6.90;;
65096;SDS011;51686;46.758;4.356;2022-08-19T10:43:22;10.45;;;7.03;;
65096;SDS011;51686;46.758;4.356;2022-08-19T10:46:09;9.68;;;6.45;;
65096;SDS011;51686;46.758;4.356;2022-08-19T10:49:02;10.05;;;6.53;;
65096;SDS011;51686;46.758;4.356;2022-08-19T10:51:50;11.55;;;6.82;;
65096;SDS011;51686;46.758;4.356;2022-08-19T10:55:05;9.75;;;6.07;;
65096;SDS011;51686;46.758;4.356;2022-08-19T10:58:16;9.98;;;6.28;;
65096;SDS011;51686;46.758;4.356;2022-08-19T11:01:08;10.27;;;6.30;;
65096;SDS011;51686;46.758;4.356;2022-08-19T11:03:55;10.00;;;6.43;;
65096;SDS011;51686;46.758;4.356;2022-08-19T11:06:44;10.00;;;6.25;;
65096;SDS011;51686;46.758;4.356;2022-08-19T11:09:31;9.90;;;6.35;;
65096;SDS011;51686;46.758;4.356;2022-08-19T11:12:20;9.05;;;5.80;;
65096;SDS011;51686;46.758;4.356;2022-08-19T11:15:07;10.00;;;6.40;;
65096;SDS011;51686;46.758;4.356;2022-08-19T11:17:55;10.80;;;6.88;;
65096;SDS011;51686;46.758;4.356;2022-08-19T11:20:42;10.20;;;6.40;;
65096;SDS011;51686;46.758;4.356;2022-08-19T11:23:31;10.07;;;6.18;;
65096;SDS011;51686;46.758;4.356;2022-08-19T11:26:19;10.75;;;6.38;;
65096;SDS011;51686;46.758;4.356;2022-08-19T11:29:07;9.23;;;5.93;;
65096;SDS011;51686;46.758;4.356;2022-08-19T11:31:59;10.05;;;6.60;;
65096;SDS011;51686;46.758;4.356;2022-08-19T11:34:47;9.43;;;5.85;;
65096;SDS011;51686;46.758;4.356;2022-08-19T11:37:34;10.45;;;6.70;;
65096;SDS011;51686;46.758;4.356;2022-08-19T11:40:23;9.98;;;6.15;;
65096;SDS011;51686;46.758;4.356;2022-08-19T11:43:11;10.25;;;6.50;;
65096;SDS011;51686;46.758;4.356;2022-08-19T11:45:57;10.55;;;6.82;;
65096;SDS011;51686;46.758;4.356;2022-08-19T11:48:44;9.40;;;5.95;;
65096;SDS011;51686;46.758;4.356;2022-08-19T11:51:31;10.02;;;6.35;;
65096;SDS011;51686;46.758;4.356;2022-08-19T11:54:18;10.15;;;6.13;;
65096;SDS011;51686;46.758;4.356;2022-08-19T11:57:05;9.75;;;6.40;;
65096;SDS011;51686;46.758;4.356;2022-08-19T11:59:52;9.75;;;6.18;;
65096;SDS011;51686;46.758;4.356;2022-08-19T12:02:39;10.45;;;6.55;;
65096;SDS011;51686;46.758;4.356;2022-08-19T12:05:26;9.57;;;5.97;;
65096;SDS011;51686;46.758;4.356;2022-08-19T12:08:13;10.50;;;6.28;;
65096;SDS011;51686;46.758;4.356;2022-08-19T12:11:00;9.50;;;6.23;;
65096;SDS011;51686;46.758;4.356;2022-08-19T12:13:47;9.98;;;6.00;;
65096;SDS011;51686;46.758;4.356;2022-08-19T12:16:34;10.05;;;6.30;;
65096;SDS011;51686;46.758;4.356;2022-08-19T12:19:26;9.98;;;6.15;;
65096;SDS011;51686;46.758;4.356;2022-08-19T12:22:13;9.30;;;5.93;;
65096;SDS011;51686;46.758;4.356;2022-08-19T12:25:00;10.02;;;6.15;;
65096;SDS011;51686;46.758;4.356;2022-08-19T12:27:47;9.45;;;6.07;;
65096;SDS011;51686;46.758;4.356;2022-08-19T12:30:42;9.98;;;6.47;;
65096;SDS011;51686;46.758;4.356;2022-08-19T12:33:29;10.15;;;6.20;;
65096;SDS011;51686;46.758;4.356;2022-08-19T12:36:18;9.07;;;5.95;;
65096;SDS011;51686;46.758;4.356;2022-08-19T12:39:05;10.00;;;6.50;;
65096;SDS011;51686;46.758;4.356;2022-08-19T12:41:56;9.57;;;6.13;;
65096;SDS011;51686;46.758;4.356;2022-08-19T12:44:43;9.32;;;5.93;;
65096;SDS011;51686;46.758;4.356;2022-08-19T12:47:30;9.70;;;6.10;;
65096;SDS011;51686;46.758;4.356;2022-08-19T12:50:20;9.45;;;6.18;;
65096;SDS011;51686;46.758;4.356;2022-08-19T12:53:08;9.05;;;5.53;;
65096;SDS011;51686;46.758;4.356;2022-08-19T12:55:55;9.73;;;5.97;;
65096;SDS011;51686;46.758;4.356;2022-08-19T12:58:43;10.38;;;6.32;;
65096;SDS011;51686;46.758;4.356;2022-08-19T13:01:38;9.65;;;6.03;;
65096;SDS011;51686;46.758;4.356;2022-08-19T13:04:25;10.30;;;6.40;;
65096;SDS011;51686;46.758;4.356;2022-08-19T13:07:12;9.50;;;6.00;;
65096;SDS011;51686;46.758;4.356;2022-08-19T13:09:59;9.57;;;6.18;;
65096;SDS011;51686;46.758;4.356;2022-08-19T13:12:47;9.85;;;6.07;;
65096;SDS011;51686;46.758;4.356;2022-08-19T13:15:36;9.88;;;6.03;;
65096;SDS011;51686;46.758;4.356;2022-08-19T13:18:26;9.65;;;6.07;;
65096;SDS011;51686;46.758;4.356;2022-08-19T13:21:13;9.15;;;5.70;;
65096;SDS011;51686;46.758;4.356;2022-08-19T13:24:00;10.45;;;6.10;;
65096;SDS011;51686;46.758;4.356;2022-08-19T13:26:47;9.57;;;6.03;;
65096;SDS011;51686;46.758;4.356;2022-08-19T13:29:34;9.63;;;5.93;;
65096;SDS011;51686;46.758;4.356;2022-08-19T13:32:40;9.20;;;5.75;;
65096;SDS011;51686;46.758;4.356;2022-08-19T13:35:49;10.27;;;6.38;;
65096;SDS011;51686;46.758;4.356;2022-08-19T13:38:41;9.00;;;5.53;;
65096;SDS011;51686;46.758;4.356;2022-08-19T13:41:28;9.93;;;5.15;;
65096;SDS011;51686;46.758;4.356;2022-08-19T13:44:15;9.13;;;5.47;;
65096;SDS011;51686;46.758;4.356;2022-08-19T13:47:05;9.10;;;5.13;;
65096;SDS011;51686;46.758;4.356;2022-08-19T13:52:40;8.32;;;4.55;;
65096;SDS011;51686;46.758;4.356;2022-08-19T13:55:27;8.45;;;4.70;;
65096;SDS011;51686;46.758;4.356;2022-08-19T13:58:14;8.95;;;5.03;;
65096;SDS011;51686;46.758;4.356;2022-08-19T14:01:01;9.30;;;5.30;;
65096;SDS011;51686;46.758;4.356;2022-08-19T14:03:48;9.02;;;5.40;;
65096;SDS011;51686;46.758;4.356;2022-08-19T14:06:35;9.60;;;5.65;;
65096;SDS011;51686;46.758;4.356;2022-08-19T14:09:22;8.80;;;5.18;;
65096;SDS011;51686;46.758;4.356;2022-08-19T14:12:09;8.85;;;5.35;;
65096;SDS011;51686;46.758;4.356;2022-08-19T14:14:56;9.15;;;5.70;;
65096;SDS011;51686;46.758;4.356;2022-08-19T14:17:44;9.02;;;5.07;;
65096;SDS011;51686;46.758;4.356;2022-08-19T14:20:36;9.18;;;5.25;;
65096;SDS011;51686;46.758;4.356;2022-08-19T14:23:23;8.93;;;5.55;;
65096;SDS011;51686;46.758;4.356;2022-08-19T14:26:11;9.05;;;5.25;;
65096;SDS011;51686;46.758;4.356;2022-08-19T14:28:59;9.15;;;5.25;;
65096;SDS011;51686;46.758;4.356;2022-08-19T14:31:47;9.18;;;5.20;;
65096;SDS011;51686;46.758;4.356;2022-08-19T14:34:34;10.13;;;5.88;;
65096;SDS011;51686;46.758;4.356;2022-08-19T14:37:23;8.95;;;5.60;;
65096;SDS011;51686;46.758;4.356;2022-08-19T14:40:10;9.45;;;5.72;;
65096;SDS011;51686;46.758;4.356;2022-08-19T14:43:00;9.05;;;5.75;;
65096;SDS011;51686;46.758;4.356;2022-08-19T14:45:50;9.73;;;5.88;;
65096;SDS011;51686;46.758;4.356;2022-08-19T14:48:38;9.35;;;5.78;;
65096;SDS011;51686;46.758;4.356;2022-08-19T14:51:29;9.55;;;5.43;;
65096;SDS011;51686;46.758;4.356;2022-08-19T14:54:16;9.18;;;5.82;;
65096;SDS011;51686;46.758;4.356;2022-08-19T14:57:03;10.35;;;6.32;;
65096;SDS011;51686;46.758;4.356;2022-08-19T14:59:53;9.68;;;5.95;;
65096;SDS011;51686;46.758;4.356;2022-08-19T15:03:09;9.98;;;5.50;;
65096;SDS011;51686;46.758;4.356;2022-08-19T15:06:00;9.25;;;5.72;;
65096;SDS011;51686;46.758;4.356;2022-08-19T15:08:51;9.88;;;6.03;;
65096;SDS011;51686;46.758;4.356;2022-08-19T15:11:39;10.05;;;6.03;;
65096;SDS011;51686;46.758;4.356;2022-08-19T15:14:26;10.23;;;6.32;;
65096;SDS011;51686;46.758;4.356;2022-08-19T15:17:14;9.85;;;5.90;;
65096;SDS011;51686;46.758;4.356;2022-08-19T15:20:01;11.05;;;6.43;;
65096;SDS011;51686;46.758;4.356;2022-08-19T15:22:48;10.05;;;6.47;;
65096;SDS011;51686;46.758;4.356;2022-08-19T15:25:36;10.50;;;6.63;;
65096;SDS011;51686;46.758;4.356;2022-08-19T15:28:24;10.00;;;6.55;;
65096;SDS011;51686;46.758;4.356;2022-08-19T15:31:12;9.82;;;6.32;;
65096;SDS011;51686;46.758;4.356;2022-08-19T15:34:11;10.70;;;5.93;;
65096;SDS011;51686;46.758;4.356;2022-08-19T15:36:57;10.50;;;7.00;;
65096;SDS011;51686;46.758;4.356;2022-08-19T15:39:45;9.82;;;6.43;;
65096;SDS011;51686;46.758;4.356;2022-08-19T15:42:32;10.52;;;6.63;;
65096;SDS011;51686;46.758;4.356;2022-08-19T15:45:21;10.38;;;6.75;;
65096;SDS011;51686;46.758;4.356;2022-08-19T15:48:08;10.68;;;7.13;;
65096;SDS011;51686;46.758;4.356;2022-08-19T15:50:55;10.55;;;6.78;;
65096;SDS011;51686;46.758;4.356;2022-08-19T15:53:42;10.38;;;6.50;;
65096;SDS011;51686;46.758;4.356;2022-08-19T15:56:29;9.80;;;6.60;;
65096;SDS011;51686;46.758;4.356;2022-08-19T15:59:53;9.90;;;6.43;;
65096;SDS011;51686;46.758;4.356;2022-08-19T16:02:58;10.48;;;6.68;;
65096;SDS011;51686;46.758;4.356;2022-08-19T16:06:19;9.90;;;5.75;;
65096;SDS011;51686;46.758;4.356;2022-08-19T16:09:30;10.10;;;6.13;;
65096;SDS011;51686;46.758;4.356;2022-08-19T16:12:21;9.80;;;5.75;;
65096;SDS011;51686;46.758;4.356;2022-08-19T16:15:15;9.25;;;5.20;;
65096;SDS011;51686;46.758;4.356;2022-08-19T16:18:02;9.38;;;5.57;;
65096;SDS011;51686;46.758;4.356;2022-08-19T16:20:49;8.98;;;5.28;;
65096;SDS011;51686;46.758;4.356;2022-08-19T16:23:36;9.45;;;5.57;;
65096;SDS011;51686;46.758;4.356;2022-08-19T16:26:23;9.18;;;5.57;;
65096;SDS011;51686;46.758;4.356;2022-08-19T16:29:17;10.38;;;5.90;;
65096;SDS011;51686;46.758;4.356;2022-08-19T16:32:20;9.27;;;5.05;;
65096;SDS011;51686;46.758;4.356;2022-08-19T16:35:07;9.48;;;5.13;;
65096;SDS011;51686;46.758;4.356;2022-08-19T16:37:54;9.18;;;4.82;;
65096;SDS011;51686;46.758;4.356;2022-08-19T16:40:41;9.38;;;4.88;;
65096;SDS011;51686;46.758;4.356;2022-08-19T16:43:32;9.50;;;5.15;;
65096;SDS011;51686;46.758;4.356;2022-08-19T16:46:21;9.00;;;5.18;;
65096;SDS011;51686;46.758;4.356;2022-08-19T16:49:12;8.82;;;4.93;;
65096;SDS011;51686;46.758;4.356;2022-08-19T16:52:00;9.23;;;5.18;;
65096;SDS011;51686;46.758;4.356;2022-08-19T16:54:48;8.98;;;4.97;;
65096;SDS011;51686;46.758;4.356;2022-08-19T16:57:35;8.88;;;4.72;;
65096;SDS011;51686;46.758;4.356;2022-08-19T17:00:23;8.95;;;5.03;;
65096;SDS011;51686;46.758;4.356;2022-08-19T17:03:09;9.55;;;5.30;;
65096;SDS011;51686;46.758;4.356;2022-08-19T17:06:00;9.48;;;5.07;;
65096;SDS011;51686;46.758;4.356;2022-08-19T17:08:49;9.63;;;5.55;;
65096;SDS011;51686;46.758;4.356;2022-08-19T17:11:39;9.23;;;5.10;;
65096;SDS011;51686;46.758;4.356;2022-08-19T17:14:26;9.88;;;5.35;;
65096;SDS011;51686;46.758;4.356;2022-08-19T17:17:13;9.88;;;5.20;;
65096;SDS011;51686;46.758;4.356;2022-08-19T17:20:02;8.90;;;5.10;;
65096;SDS011;51686;46.758;4.356;2022-08-19T17:22:50;8.88;;;4.85;;
65096;SDS011;51686;46.758;4.356;2022-08-19T17:25:37;8.55;;;4.45;;
65096;SDS011;51686;46.758;4.356;2022-08-19T17:28:25;8.85;;;5.15;;
65096;SDS011;51686;46.758;4.356;2022-08-19T17:31:14;8.50;;;4.57;;
65096;SDS011;51686;46.758;4.356;2022-08-19T17:34:01;8.45;;;4.50;;
65096;SDS011;51686;46.758;4.356;2022-08-19T17:36:49;9.07;;;4.57;;
65096;SDS011;51686;46.758;4.356;2022-08-19T17:39:36;8.40;;;4.50;;
65096;SDS011;51686;46.758;4.356;2022-08-19T17:42:25;8.35;;;4.40;;
65096;SDS011;51686;46.758;4.356;2022-08-19T17:45:17;7.90;;;3.90;;
65096;SDS011;51686;46.758;4.356;2022-08-19T17:48:06;8.95;;;4.43;;
65096;SDS011;51686;46.758;4.356;2022-08-19T17:50:56;8.18;;;3.95;;